Time;durP1;ratioP1;P1;durP2;ratioP2;P2;SDS_P1;SDS_P2;PMS_P1;PMS_P2;Temp;Humidity;BMP_temperature;BMP_pressure;BME280_temperature;BME280_humidity;BME280_pressure;Samples;Min_cycle;Max_cycle;Signal;HPM_P1;HPM_P2
2020/12/02 00:01:42;;;;;;;7.38;4.78;;;11.70;98.20;;;;;;3614720;32;20143;-82
2020/12/02 00:04:13;;;;;;;6.63;4.85;;;11.70;98.20;;;;;;3613856;39;20154;-80
2020/12/02 00:06:44;;;;;;;6.95;5.00;;;11.70;98.80;;;;;;3627185;32;20114;-82
2020/12/02 00:09:17;;;;;;;7.32;4.78;;;11.70;98.70;;;;;;3613473;39;20109;-81
2020/12/02 00:11:43;;;;;;;5.63;4.47;;;11.80;98.60;;;;;;3624779;32;20106;-82
2020/12/02 00:14:17;;;;;;;11.27;5.57;;;11.70;98.40;;;;;;3614203;32;20118;-81
2020/12/02 00:16:46;;;;;;;5.75;4.25;;;11.80;98.40;;;;;;3631313;32;20132;-82
2020/12/02 00:19:14;;;;;;;8.65;6.32;;;11.70;98.40;;;;;;3614040;39;20121;-82
2020/12/02 00:21:40;;;;;;;9.35;5.82;;;11.70;98.60;;;;;;3650160;32;20137;-82
2020/12/02 00:24:07;;;;;;;5.90;4.63;;;10.00;98.50;;;;;;3646999;32;20168;-81
2020/12/02 00:26:35;;;;;;;7.57;3.95;;;11.80;99.70;;;;;;3613479;39;20118;-83
2020/12/02 00:29:01;;;;;;;5.90;4.00;;;11.80;98.60;;;;;;3622160;39;20167;-84
2020/12/02 00:31:27;;;;;;;6.32;4.18;;;11.80;98.90;;;;;;3613646;39;20114;-82
2020/12/02 00:33:53;;;;;;;7.55;4.30;;;11.80;98.50;;;;;;3611611;39;20130;-82
2020/12/02 00:36:19;;;;;;;6.60;4.47;;;11.80;98.50;;;;;;3640981;32;20122;-81
2020/12/02 00:38:45;;;;;;;9.23;4.22;;;11.80;98.80;;;;;;3604579;39;20134;-85
2020/12/02 00:41:12;;;;;;;3.58;1.98;;;11.90;99.70;;;;;;3614228;39;20122;-83
2020/12/02 00:43:38;;;;;;;6.05;1.83;;;11.80;99.10;;;;;;3616211;39;20118;-83
2020/12/02 00:46:06;;;;;;;7.45;2.25;;;11.80;99.40;;;;;;3625208;39;20126;-83
2020/12/02 00:48:55;;;;;;;7.18;2.08;;;11.80;99.50;;;;;;3653667;32;20110;-82
2020/12/02 00:51:24;;;;;;;3.40;1.38;;;11.80;99.70;;;;;;3635137;32;20146;-84
2020/12/02 00:53:50;;;;;;;8.82;2.28;;;11.80;99.90;;;;;;3613682;39;20148;-82
2020/12/02 00:56:19;;;;;;;4.80;1.48;;;11.70;99.90;;;;;;3622188;39;20540;-83
2020/12/02 00:59:12;;;;;;;7.22;2.15;;;11.70;99.90;;;;;;3622750;39;20561;-84
2020/12/02 01:02:15;;;;;;;11.87;2.80;;;11.60;99.90;;;;;;3640123;32;20146;-84
2020/12/02 01:04:44;;;;;;;11.07;2.72;;;11.60;99.90;;;;;;3615250;32;20130;-83
2020/12/02 01:07:11;;;;;;;8.73;2.00;;;11.60;99.90;;;;;;3650270;32;20608;-84
2020/12/02 01:09:38;;;;;;;8.30;2.30;;;11.60;99.90;;;;;;3644446;32;20110;-82
2020/12/02 01:12:04;;;;;;;8.93;2.78;;;10.40;99.90;;;;;;3612799;39;20122;-83
2020/12/02 01:14:30;;;;;;;9.52;2.75;;;11.50;99.90;;;;;;3621430;39;20139;-82
2020/12/02 01:16:59;;;;;;;8.07;2.47;;;11.50;99.90;;;;;;3612477;39;20133;-81
2020/12/02 01:19:29;;;;;;;10.38;2.60;;;11.50;99.90;;;;;;3645020;32;20114;-82
2020/12/02 01:22:21;;;;;;;6.32;2.13;;;11.40;99.90;;;;;;3613555;39;20114;-86
2020/12/02 01:25:00;;;;;;;16.42;2.95;;;11.50;99.90;;;;;;3602322;32;20126;-81
2020/12/02 01:27:50;;;;;;;11.00;2.83;;;11.40;99.90;;;;;;3613429;39;20128;-81
2020/12/02 01:30:17;;;;;;;8.57;1.80;;;11.40;99.90;;;;;;3620560;39;20129;-82
2020/12/02 01:32:47;;;;;;;7.82;3.55;;;11.40;99.90;;;;;;3620160;39;20118;-82
2020/12/02 01:35:17;;;;;;;6.53;1.73;;;11.40;99.90;;;;;;3620025;39;20170;-80
2020/12/02 01:37:45;;;;;;;8.98;2.53;;;11.40;99.90;;;;;;3611004;39;20109;-82
2020/12/02 01:40:16;;;;;;;7.13;1.85;;;11.40;99.90;;;;;;3619661;39;20169;-81
2020/12/02 01:42:45;;;;;;;5.82;2.55;;;11.40;99.90;;;;;;3616918;32;20118;-83
2020/12/02 01:45:27;;;;;;;10.23;2.17;;;10.30;99.90;;;;;;3672807;32;20129;-83
2020/12/02 01:47:53;;;;;;;7.93;2.47;;;11.40;99.90;;;;;;3611672;39;20496;-83
2020/12/02 01:50:34;;;;;;;6.85;2.55;;;11.40;99.90;;;;;;3611352;39;20153;-82
2020/12/02 01:53:19;;;;;;;11.38;3.22;;;13.60;99.90;;;;;;3612603;39;20171;-81
2020/12/02 01:56:00;;;;;;;4.43;3.22;;;11.40;99.90;;;;;;3657586;32;20562;-82
2020/12/02 01:58:57;;;;;;;6.38;3.42;;;11.40;99.90;;;;;;3620560;39;20142;-82
2020/12/02 02:01:46;;;;;;;8.88;2.30;;;11.50;99.90;;;;;;3607285;32;20118;-82
2020/12/02 02:04:17;;;;;;;2.83;1.70;;;11.40;99.90;;;;;;3645388;32;20114;-83
2020/12/02 02:07:02;;;;;;;7.57;2.17;;;11.30;99.90;;;;;;3613175;39;20117;-83
2020/12/02 02:09:29;;;;;;;5.70;2.50;;;11.30;99.90;;;;;;3621020;39;20132;-82
2020/12/02 02:12:27;;;;;;;9.90;3.72;;;10.20;99.90;;;;;;3648081;32;20636;-82
2020/12/02 02:14:53;;;;;;;10.75;3.83;;;11.20;99.90;;;;;;3636114;32;20117;-83
2020/12/02 02:17:19;;;;;;;6.38;2.53;;;11.10;99.90;;;;;;3610349;39;20079;-82
2020/12/02 02:19:46;;;;;;;6.82;3.30;;;10.60;99.90;;;;;;3619766;39;20304;-83
2020/12/02 02:22:17;;;;;;;10.63;2.97;;;11.10;99.90;;;;;;3641175;32;20114;-82
2020/12/02 02:24:45;;;;;;;12.13;5.70;;;11.20;99.90;;;;;;3620679;39;20122;-81
2020/12/02 02:27:13;;;;;;;8.55;4.38;;;9.40;99.90;;;;;;3611619;39;20208;-82
2020/12/02 02:29:40;;;;;;;6.38;2.47;;;11.10;99.90;;;;;;3611035;39;20118;-82
2020/12/02 02:32:15;;;;;;;9.88;2.97;;;11.20;99.90;;;;;;3619461;39;20130;-82
2020/12/02 02:34:47;;;;;;;9.85;3.67;;;11.30;99.90;;;;;;3615149;39;20102;-82
2020/12/02 02:37:18;;;;;;;10.20;2.88;;;11.30;99.90;;;;;;3602042;39;20118;-82
2020/12/02 02:39:47;;;;;;;5.70;2.20;;;11.30;99.90;;;;;;3601698;40;20119;-81
2020/12/02 02:42:36;;;;;;;7.80;2.92;;;11.30;99.90;;;;;;3602677;40;20184;-81
2020/12/02 02:45:13;;;;;;;3.70;2.28;;;11.40;99.90;;;;;;3603163;39;20605;-82
2020/12/02 02:47:40;;;;;;;5.40;3.22;;;11.40;99.80;;;;;;3605181;39;20178;-82
2020/12/02 02:50:11;;;;;;;11.18;4.72;;;11.40;99.80;;;;;;3650607;32;20621;-82
2020/12/02 02:52:40;;;;;;;8.60;5.32;;;11.30;99.50;;;;;;3618610;32;20137;-81
2020/12/02 02:55:13;;;;;;;7.07;3.60;;;11.40;99.60;;;;;;3604958;39;20125;-81
2020/12/02 02:57:40;;;;;;;4.03;2.10;;;11.30;99.80;;;;;;3622590;32;20122;-83
2020/12/02 03:00:10;;;;;;;4.28;2.45;;;11.30;99.80;;;;;;3603450;32;20209;-83
2020/12/02 03:03:01;;;;;;;7.57;2.13;;;11.30;99.90;;;;;;3634764;32;20169;-82
2020/12/02 03:05:27;;;;;;;2.33;1.65;;;11.30;99.90;;;;;;3643582;32;20130;-83
2020/12/02 03:08:13;;;;;;;6.75;3.33;;;11.30;99.90;;;;;;3622199;32;20164;-82
2020/12/02 03:10:44;;;;;;;5.03;2.45;;;11.30;99.90;;;;;;3601640;40;20123;-83
2020/12/02 03:14:11;;;;;;;5.55;2.50;;;11.30;99.90;;;;;;3602481;39;20593;-82
2020/12/02 03:17:05;;;;;;;7.80;3.45;;;11.50;99.90;;;;;;3601717;40;20123;-81
2020/12/02 03:20:28;;;;;;;6.35;3.55;;;11.20;99.90;;;;;;3628781;32;20129;-81
2020/12/02 03:23:02;;;;;;;6.38;3.60;;;11.40;99.90;;;;;;3602177;39;20137;-80
2020/12/02 03:26:10;;;;;;;7.63;3.83;;;11.40;99.90;;;;;;3600897;40;20130;-86
2020/12/02 03:29:07;;;;;;;101.18;41.80;;;11.30;99.90;;;;;;3598483;40;20172;-81
2020/12/02 03:31:42;;;;;;;84.78;39.13;;;11.40;99.90;;;;;;3603128;32;20118;-82
2020/12/02 03:34:18;;;;;;;61.55;29.58;;;11.40;99.90;;;;;;3658700;32;20164;-82
2020/12/02 03:36:45;;;;;;;36.40;18.73;;;11.40;99.90;;;;;;3617679;32;20130;-83
2020/12/02 03:39:21;;;;;;;38.53;19.55;;;11.30;99.90;;;;;;3623599;39;20182;-83
2020/12/02 03:41:47;;;;;;;46.58;27.50;;;11.30;99.90;;;;;;3653891;32;20117;-85
2020/12/02 03:44:16;;;;;;;31.23;18.17;;;12.40;99.90;;;;;;3652507;32;20110;-83
2020/12/02 03:46:47;;;;;;;19.27;9.50;;;11.40;99.90;;;;;;3630960;39;20118;-83
2020/12/02 03:49:14;;;;;;;5.93;3.30;;;11.30;99.90;;;;;;3614250;39;20121;-84
2020/12/02 03:51:42;;;;;;;4.82;2.97;;;11.40;99.90;;;;;;3623274;39;20122;-83
2020/12/02 03:54:10;;;;;;;5.72;2.50;;;9.80;99.90;;;;;;3647111;32;20122;-83
2020/12/02 03:56:38;;;;;;;5.72;2.67;;;11.40;99.90;;;;;;3618842;39;20140;-83
2020/12/02 03:59:13;;;;;;;6.18;2.13;;;11.40;99.90;;;;;;3627760;32;20389;-83
2020/12/02 04:01:40;;;;;;;20.33;12.63;;;11.50;99.90;;;;;;3614790;39;20125;-81
2020/12/02 04:04:07;;;;;;;16.90;10.65;;;11.40;99.90;;;;;;3614556;39;20146;-82
2020/12/02 04:06:34;;;;;;;11.45;9.05;;;11.40;99.90;;;;;;3623795;39;20122;-83
2020/12/02 04:09:00;;;;;;;10.85;4.65;;;11.50;99.90;;;;;;3641144;32;20641;-83
2020/12/02 04:11:44;;;;;;;7.05;3.05;;;11.50;99.90;;;;;;3647851;32;20112;-83
2020/12/02 04:14:10;;;;;;;7.47;3.63;;;11.50;99.90;;;;;;3610420;39;20181;-82
2020/12/02 04:16:37;;;;;;;6.30;3.97;;;11.50;99.90;;;;;;3623783;39;20158;-85
2020/12/02 04:19:06;;;;;;;7.88;3.45;;;11.50;99.90;;;;;;3637980;32;20129;-82
2020/12/02 04:21:33;;;;;;;6.88;4.25;;;11.40;99.90;;;;;;3625468;32;20163;-83
2020/12/02 04:24:01;;;;;;;2.85;2.17;;;11.40;99.90;;;;;;3614431;39;20129;-81
2020/12/02 04:26:27;;;;;;;6.13;1.80;;;10.90;99.90;;;;;;3659369;32;20121;-83
2020/12/02 04:28:54;;;;;;;6.03;1.67;;;11.40;99.90;;;;;;3618846;32;20638;-83
2020/12/02 04:31:21;;;;;;;3.53;1.70;;;11.50;99.90;;;;;;3623663;32;20109;-83
2020/12/02 04:33:48;;;;;;;4.18;1.55;;;13.80;99.90;;;;;;3633263;32;20110;-83
2020/12/02 04:36:14;;;;;;;2.67;2.00;;;11.50;99.90;;;;;;3613513;32;20134;-83
2020/12/02 04:38:41;;;;;;;3.72;2.08;;;11.40;99.90;;;;;;3663753;32;20145;-83
2020/12/02 04:41:17;;;;;;;2.65;1.95;;;11.50;99.90;;;;;;3623502;39;20138;-83
2020/12/02 04:43:51;;;;;;;2.40;1.67;;;11.50;99.90;;;;;;3647926;32;20130;-82
2020/12/02 04:46:27;;;;;;;4.50;1.70;;;11.50;99.90;;;;;;3617203;32;20121;-83
2020/12/02 04:49:02;;;;;;;4.05;1.92;;;11.50;99.90;;;;;;3614667;39;20109;-84
2020/12/02 04:51:29;;;;;;;2.83;1.88;;;11.50;99.90;;;;;;3636759;32;20130;-84
2020/12/02 04:53:57;;;;;;;3.83;1.85;;;11.50;99.90;;;;;;3623433;32;20194;-82
2020/12/02 04:56:27;;;;;;;5.25;2.55;;;11.40;99.90;;;;;;3624889;39;20108;-80
2020/12/02 04:59:00;;;;;;;5.47;2.72;;;11.50;99.90;;;;;;3640474;32;20122;-83
2020/12/02 05:01:31;;;;;;;;;;;13.10;99.90;;;;;;3615721;39;20109;-84
2020/12/02 05:04:02;;;;;;;3.58;1.90;;;11.40;99.90;;;;;;3632514;32;20009;-82
2020/12/02 05:06:43;;;;;;;6.82;2.13;;;11.30;99.90;;;;;;3615969;39;20121;-83
2020/12/02 05:09:25;;;;;;;3.58;1.85;;;11.30;99.90;;;;;;3616509;39;20408;-83
2020/12/02 05:12:04;;;;;;;4.60;1.98;;;11.40;99.90;;;;;;3616274;39;20129;-81
2020/12/02 05:14:46;;;;;;;4.57;2.00;;;11.30;99.90;;;;;;3615466;39;20114;-84
2020/12/02 05:17:25;;;;;;;6.45;2.17;;;11.20;99.90;;;;;;3667348;32;20077;-84
2020/12/02 05:20:21;;;;;;;3.15;2.20;;;11.10;99.90;;;;;;3663749;32;20136;-83
2020/12/02 05:22:51;;;;;;;2.97;2.30;;;11.10;99.90;;;;;;3629783;32;20122;-83
2020/12/02 05:25:17;;;;;;;5.78;2.10;;;10.90;99.90;;;;;;3614366;39;20138;-83
2020/12/02 05:27:46;;;;;;;11.98;2.85;;;11.10;99.90;;;;;;3615473;39;20242;-81
2020/12/02 05:30:37;;;;;;;5.10;2.55;;;11.10;99.90;;;;;;3632401;32;20116;-83
2020/12/02 05:33:21;;;;;;;20.98;12.10;;;11.00;99.90;;;;;;3623788;39;20094;-82
2020/12/02 05:36:13;;;;;;;12.15;7.15;;;11.00;99.90;;;;;;3636019;31;20508;-83
2020/12/02 05:39:16;;;;;;;6.68;4.70;;;11.00;99.90;;;;;;3624051;32;20116;-82
2020/12/02 05:41:43;;;;;;;3.90;3.53;;;11.00;99.90;;;;;;3641487;32;20133;-81
2020/12/02 05:44:31;;;;;;;12.95;3.85;;;11.00;99.90;;;;;;3624080;32;20118;-80
2020/12/02 05:47:11;;;;;;;5.15;3.17;;;11.00;99.90;;;;;;3612706;39;20108;-81
2020/12/02 05:49:47;;;;;;;4.88;3.33;;;11.00;99.90;;;;;;3628937;32;20145;-82
2020/12/02 05:52:36;;;;;;;4.53;3.25;;;11.00;99.90;;;;;;3613800;39;20352;-83
2020/12/02 05:55:14;;;;;;;5.30;3.05;;;10.40;99.90;;;;;;3613035;39;20125;-82
2020/12/02 05:58:03;;;;;;;3.67;3.03;;;11.00;99.90;;;;;;3665215;32;20145;-84
2020/12/02 06:01:13;;;;;;;4.72;2.65;;;11.10;99.90;;;;;;3653048;32;20198;-81
2020/12/02 06:03:46;;;;;;;3.13;2.75;;;11.10;99.90;;;;;;3655683;32;20658;-85
2020/12/02 06:06:14;;;;;;;3.13;2.33;;;11.10;99.90;;;;;;3622505;39;20106;-82
2020/12/02 06:09:22;;;;;;;2.50;2.15;;;11.10;99.90;;;;;;3613607;39;20121;-81
2020/12/02 06:12:16;;;;;;;4.25;2.30;;;11.10;99.90;;;;;;3627603;32;20125;-80
2020/12/02 06:14:42;;;;;;;2.22;2.00;;;11.10;99.90;;;;;;3634492;32;20129;-84
2020/12/02 06:17:28;;;;;;;3.47;2.55;;;11.10;99.90;;;;;;3612780;39;20117;-82
2020/12/02 06:20:12;;;;;;;4.28;3.42;;;11.10;99.90;;;;;;3612931;39;20832;-82
2020/12/02 06:23:04;;;;;;;3.03;2.33;;;11.00;99.90;;;;;;3630127;32;20184;-82
2020/12/02 06:26:00;;;;;;;4.10;3.00;;;11.10;99.90;;;;;;3610622;39;20121;-80
2020/12/02 06:28:46;;;;;;;7.20;3.33;;;11.20;99.90;;;;;;3636897;32;20142;-82
2020/12/02 06:31:18;;;;;;;7.55;3.20;;;9.70;99.90;;;;;;3636857;32;20130;-81
2020/12/02 06:33:46;;;;;;;4.35;3.20;;;11.10;99.90;;;;;;3614385;32;20150;-81
2020/12/02 06:36:21;;;;;;;7.25;3.58;;;10.90;99.90;;;;;;3613395;39;20173;-83
2020/12/02 06:38:50;;;;;;;6.68;4.25;;;11.30;99.90;;;;;;3613988;39;20132;-83
2020/12/02 06:41:29;;;;;;;5.55;1.63;;;11.10;99.90;;;;;;3638015;32;20178;-83
2020/12/02 06:44:02;;;;;;;5.25;2.47;;;11.10;98.90;;;;;;3646529;32;20138;-80
2020/12/02 06:46:56;;;;;;;7.60;3.30;;;11.30;99.00;;;;;;3613969;39;20125;-82
2020/12/02 06:49:24;;;;;;;8.15;3.58;;;11.40;99.40;;;;;;3620773;32;20117;-82
2020/12/02 06:52:00;;;;;;;9.15;4.55;;;11.40;99.60;;;;;;3612947;39;20588;-82
2020/12/02 06:54:29;;;;;;;4.75;2.72;;;11.30;99.70;;;;;;3612526;39;20244;-83
2020/12/02 06:57:06;;;;;;;6.97;4.10;;;11.40;99.00;;;;;;3627174;39;20113;-84
2020/12/02 06:59:56;;;;;;;6.40;5.13;;;11.50;99.20;;;;;;3619317;32;20759;-83
2020/12/02 07:02:54;;;;;;;4.20;3.13;;;10.40;98.40;;;;;;3624155;39;21105;-80
2020/12/02 07:05:48;;;;;;;7.22;3.40;;;11.50;98.80;;;;;;3697132;32;20128;-83
2020/12/02 07:08:36;;;;;;;5.03;4.28;;;11.50;98.50;;;;;;3627274;39;20078;-83
2020/12/02 07:11:25;;;;;;;5.72;4.28;;;11.50;98.80;;;;;;3632235;32;20087;-82
2020/12/02 07:13:54;;;;;;;12.95;8.02;;;11.50;98.70;;;;;;3617309;32;20114;-84
2020/12/02 07:16:37;;;;;;;21.10;14.65;;;10.10;98.40;;;;;;3653232;32;20708;-82
2020/12/02 07:19:06;;;;;;;35.25;23.30;;;11.60;98.90;;;;;;3635109;39;20147;-83
2020/12/02 07:22:41;;;;;;;29.52;19.95;;;11.60;99.10;;;;;;3618398;39;20101;-84
2020/12/02 07:25:09;;;;;;;13.77;10.68;;;11.70;99.00;;;;;;3625989;32;20123;-83
2020/12/02 07:27:53;;;;;;;11.50;8.65;;;11.80;99.30;;;;;;3614839;32;20065;-83
2020/12/02 07:31:26;;;;;;;11.23;7.25;;;11.90;99.10;;;;;;3583012;40;20621;-82
2020/12/02 07:34:02;;;;;;;11.00;7.45;;;12.90;99.30;;;;;;3633484;32;20114;-83
2020/12/02 07:36:33;;;;;;;10.02;6.80;;;12.00;99.60;;;;;;3615574;39;20110;-82
2020/12/02 07:39:11;;;;;;;19.83;11.40;;;12.00;98.70;;;;;;3615362;39;20126;-83
2020/12/02 07:42:06;;;;;;;13.00;10.05;;;12.20;98.30;;;;;;3614612;39;20118;-82
2020/12/02 07:45:19;;;;;;;24.88;18.20;;;12.20;98.40;;;;;;3655661;32;20608;-83
2020/12/02 07:48:28;;;;;;;21.52;16.85;;;12.30;97.20;;;;;;3606568;32;20125;-81
2020/12/02 07:51:27;;;;;;;20.55;12.82;;;12.50;97.10;;;;;;3615339;39;20129;-83
2020/12/02 07:54:35;;;;;;;17.23;11.52;;;12.60;96.90;;;;;;3620467;32;20113;-82
2020/12/02 07:57:30;;;;;;;20.65;10.35;;;12.80;96.00;;;;;;3621075;32;20079;-84
2020/12/02 08:03:37;;;;;;;9.43;7.82;;;12.50;95.10;;;;;;3617798;39;20134;-84
2020/12/02 08:06:15;;;;;;;;;;;15.00;95.80;;;;;;3609607;39;20074;-83
2020/12/02 08:08:53;;;;;;;7.93;6.20;;;13.60;95.50;;;;;;3617474;39;20060;-86
2020/12/02 08:11:21;;;;;;;8.30;5.97;;;13.10;96.20;;;;;;3644814;32;20079;-84
2020/12/02 08:13:57;;;;;;;7.97;4.07;;;12.60;96.40;;;;;;3622436;32;20077;-84
2020/12/02 08:22:27;;;;;;;5.63;4.68;;;13.20;95.80;;;;;;3662825;32;20149;-83
2020/12/02 08:25:15;;;;;;;9.32;3.75;;;11.90;95.50;;;;;;3621278;39;20082;-84
2020/12/02 08:28:08;;;;;;;6.40;4.40;;;13.20;95.70;;;;;;3663467;32;20074;-83
2020/12/02 08:30:38;;;;;;;9.13;6.95;;;13.30;95.80;;;;;;3620767;39;20089;-81
2020/12/02 08:33:15;;;;;;;9.85;6.65;;;13.30;96.80;;;;;;3612274;39;20218;-86
2020/12/02 08:35:49;;;;;;;14.23;7.75;;;13.40;96.30;;;;;;3629544;39;20110;-85
2020/12/02 08:38:40;;;;;;;9.90;6.00;;;13.30;96.70;;;;;;3640215;32;20114;-83
2020/12/02 08:41:25;;;;;;;7.78;4.00;;;13.40;96.50;;;;;;3611492;39;20066;-83
2020/12/02 08:44:18;;;;;;;7.57;5.55;;;13.20;96.60;;;;;;3620245;39;20558;-83
2020/12/02 08:47:10;;;;;;;13.77;8.25;;;13.40;95.60;;;;;;3619141;32;20145;-84
2020/12/02 08:49:46;;;;;;;9.25;6.68;;;13.40;96.10;;;;;;3650593;32;20171;-82
2020/12/02 08:52:20;;;;;;;18.60;11.50;;;12.10;95.00;;;;;;3621743;32;20118;-85
2020/12/02 08:54:55;;;;;;;;;;;13.60;95.50;;;;;;3648300;32;20114;-82
2020/12/02 08:57:23;;;;;;;8.23;5.63;;;13.70;95.20;;;;;;3610952;39;20006;-83
2020/12/02 08:59:55;;;;;;;7.63;6.25;;;13.70;96.20;;;;;;3620316;39;20098;-84
2020/12/02 09:02:21;;;;;;;31.17;17.05;;;13.70;95.80;;;;;;3642805;32;20126;-85
2020/12/02 09:04:55;;;;;;;25.48;13.82;;;13.80;96.20;;;;;;3620563;39;20077;-83
2020/12/02 09:07:21;;;;;;;14.82;9.18;;;13.90;95.20;;;;;;3661037;32;20152;-84
2020/12/02 09:09:47;;;;;;;10.93;5.60;;;14.00;96.00;;;;;;3617710;39;20150;-86
2020/12/02 09:12:13;;;;;;;7.22;5.07;;;13.80;96.00;;;;;;3620179;39;20116;-85
2020/12/02 09:15:04;;;;;;;13.90;6.10;;;14.20;95.60;;;;;;3620463;39;20165;-83
2020/12/02 09:17:30;;;;;;;7.20;5.18;;;13.70;94.60;;;;;;3612722;32;20070;-84
2020/12/02 09:19:57;;;;;;;8.68;7.28;;;13.80;95.30;;;;;;3698695;34;20113;-86
2020/12/02 09:22:53;;;;;;;7.82;4.20;;;13.80;95.20;;;;;;3645715;32;20058;-83
2020/12/02 09:25:26;;;;;;;32.58;16.50;;;12.10;94.10;;;;;;3634596;32;20062;-86
2020/12/02 09:27:58;;;;;;;13.63;8.93;;;14.00;94.70;;;;;;3663510;32;20081;-83
2020/12/02 09:30:53;;;;;;;15.20;8.27;;;13.60;95.10;;;;;;3628154;32;20190;-82
2020/12/02 09:33:42;;;;;;;9.65;7.35;;;13.70;95.20;;;;;;3649716;32;20083;-85
2020/12/02 09:36:34;;;;;;;9.82;7.10;;;11.90;94.60;;;;;;3609834;39;20071;-85
2020/12/02 09:39:40;;;;;;;6.95;2.92;;;14.20;95.00;;;;;;3642897;32;20157;-83
2020/12/02 09:42:52;;;;;;;4.32;3.03;;;14.20;94.00;;;;;;3743224;34;20136;-85
2020/12/02 09:49:08;;;;;;;8.15;4.63;;;14.20;93.80;;;;;;3589740;32;20082;-84
2020/12/02 09:52:12;;;;;;;6.80;4.53;;;14.70;94.00;;;;;;3586897;40;20139;-88
2020/12/02 09:54:41;;;;;;;19.40;11.82;;;14.20;93.50;;;;;;3579830;32;20071;-83
2020/12/02 09:57:27;;;;;;;8.32;4.63;;;14.20;93.20;;;;;;3586996;40;20087;-84
2020/12/02 09:59:57;;;;;;;10.77;5.60;;;15.30;92.90;;;;;;3591545;40;20102;-83
2020/12/02 10:02:45;;;;;;;10.20;6.68;;;15.60;93.00;;;;;;3598450;40;20122;-83
2020/12/02 10:05:35;;;;;;;10.02;6.75;;;15.70;92.50;;;;;;3598306;40;20121;-83
2020/12/02 10:08:36;;;;;;;7.47;5.03;;;15.90;92.00;;;;;;3641506;32;20125;-84
2020/12/02 10:11:34;;;;;;;5.75;4.32;;;16.10;91.20;;;;;;3598330;40;20118;-82
2020/12/02 10:14:29;;;;;;;10.23;6.05;;;16.30;90.60;;;;;;3636383;32;20157;-85
2020/12/02 10:17:26;;;;;;;10.15;6.50;;;16.40;90.30;;;;;;3598506;40;20106;-84
2020/12/02 10:20:20;;;;;;;7.45;5.03;;;17.10;90.10;;;;;;3609912;32;20075;-83
2020/12/02 10:23:37;;;;;;;9.25;5.65;;;17.20;89.30;;;;;;3602909;32;20153;-85
2020/12/02 10:26:36;;;;;;;8.98;5.18;;;17.60;87.50;;;;;;3580584;40;20110;-83
2020/12/02 10:30:34;;;;;;;8.20;4.53;;;18.40;87.80;;;;;;3580144;40;20126;-86
2020/12/02 10:40:48;;;;;;;6.85;3.83;;;16.60;87.40;;;;;;3602846;32;20164;-84
2020/12/02 10:43:28;;;;;;;4.05;3.65;;;17.50;87.60;;;;;;3605065;32;20114;-81
2020/12/02 10:45:59;;;;;;;7.18;3.88;;;16.50;88.30;;;;;;3616186;39;20129;-84
2020/12/02 10:48:39;;;;;;;17.23;11.52;;;16.40;89.70;;;;;;3624639;32;20154;-85
2020/12/02 10:51:12;;;;;;;15.25;10.02;;;16.60;91.30;;;;;;3608557;39;20067;-84
2020/12/02 10:53:38;;;;;;;9.18;3.30;;;15.80;90.80;;;;;;3613553;39;20142;-83
2020/12/02 10:56:09;;;;;;;9.75;4.10;;;14.80;91.10;;;;;;3609368;32;20101;-85
2020/12/02 10:58:36;;;;;;;16.67;9.77;;;15.50;91.80;;;;;;3607485;39;20118;-84
2020/12/02 11:01:11;;;;;;;155.80;80.93;;;15.30;92.60;;;;;;3646750;32;20102;-83
2020/12/02 11:03:47;;;;;;;15.23;9.57;;;15.10;93.00;;;;;;3608682;39;20117;-84
2020/12/02 11:06:14;;;;;;;10.77;6.47;;;15.10;94.40;;;;;;3615492;32;20075;-86
2020/12/02 11:09:18;;;;;;;10.45;6.72;;;14.90;93.50;;;;;;3671310;32;20137;-84
2020/12/02 11:12:01;;;;;;;10.23;5.45;;;14.70;93.70;;;;;;3624073;32;20117;-83
2020/12/02 11:14:59;;;;;;;10.23;6.25;;;14.80;94.40;;;;;;3650410;32;20118;-84
2020/12/02 11:18:07;;;;;;;13.30;6.45;;;14.80;94.20;;;;;;3654349;32;20169;-82
2020/12/02 11:20:54;;;;;;;15.00;10.43;;;14.60;94.10;;;;;;3613568;39;20120;-86
2020/12/02 11:24:01;;;;;;;13.60;8.20;;;14.10;94.00;;;;;;3621127;32;20118;-83
2020/12/02 11:26:39;;;;;;;9.02;5.55;;;15.00;94.20;;;;;;3637460;32;20113;-83
2020/12/02 11:29:10;;;;;;;18.20;9.02;;;14.90;94.30;;;;;;3661052;32;20103;-83
2020/12/02 11:32:04;;;;;;;15.35;9.23;;;15.00;94.90;;;;;;3617310;32;20114;-84
2020/12/02 11:34:56;;;;;;;14.40;7.90;;;15.00;94.90;;;;;;3606990;39;20129;-84
2020/12/02 11:38:17;;;;;;;13.20;7.65;;;14.50;95.00;;;;;;3640845;32;20141;-85
2020/12/02 11:41:00;;;;;;;13.50;8.60;;;14.90;94.70;;;;;;3622056;39;20086;-83
2020/12/02 11:43:54;;;;;;;15.02;10.20;;;15.10;94.60;;;;;;3606835;39;20129;-84
2020/12/02 11:46:43;;;;;;;18.00;9.20;;;15.00;94.80;;;;;;3604488;39;20130;-83
2020/12/02 11:49:29;;;;;;;23.00;16.88;;;14.80;94.50;;;;;;3615850;39;20122;-84
2020/12/02 11:52:24;;;;;;;20.87;11.97;;;14.70;94.50;;;;;;3607893;39;20114;-82
2020/12/02 11:55:09;;;;;;;16.77;10.68;;;14.60;94.60;;;;;;3612799;39;20122;-83
2020/12/02 11:58:26;;;;;;;9.88;8.85;;;14.70;94.60;;;;;;3617533;39;20158;-83
2020/12/02 12:04:53;;;;;;;13.90;10.18;;;14.50;94.60;;;;;;3659934;32;20133;-83
2020/12/02 12:08:26;;;;;;;35.20;20.95;;;14.60;94.80;;;;;;3625960;32;20119;-84
2020/12/02 12:11:38;;;;;;;15.35;8.73;;;14.90;94.60;;;;;;3640671;32;20114;-82
2020/12/02 12:14:43;;;;;;;12.77;8.57;;;15.00;94.70;;;;;;3646811;32;20133;-83
2020/12/02 12:17:39;;;;;;;19.85;13.30;;;15.00;94.60;;;;;;3617675;39;20203;-83
2020/12/02 12:20:34;;;;;;;16.23;9.88;;;15.00;94.90;;;;;;3608256;39;20124;-86
2020/12/02 12:23:50;;;;;;;42.72;26.33;;;14.90;94.70;;;;;;3618573;32;20118;-82
2020/12/02 12:26:17;;;;;;;25.05;18.15;;;14.80;95.30;;;;;;3608419;39;20126;-82
2020/12/02 12:28:52;;;;;;;22.13;16.33;;;14.70;95.30;;;;;;3653468;32;20118;-83
2020/12/02 12:32:09;;;;;;;19.05;10.05;;;14.60;95.60;;;;;;3608288;39;20118;-84
2020/12/02 12:35:00;;;;;;;16.90;8.60;;;14.50;95.70;;;;;;3585452;32;20165;-83
2020/12/02 12:37:57;;;;;;;13.02;7.72;;;14.50;95.50;;;;;;3614815;32;20114;-83
2020/12/02 12:41:07;;;;;;;12.32;8.00;;;14.40;96.10;;;;;;3581550;40;20110;-84
2020/12/02 12:44:04;;;;;;;17.90;9.60;;;15.00;97.00;;;;;;3606121;40;20117;-85
2020/12/02 12:47:04;;;;;;;11.70;8.35;;;14.20;97.40;;;;;;3599469;39;20087;-84
2020/12/02 12:53:20;;;;;;;44.03;22.65;;;14.10;97.40;;;;;;3600994;40;20163;-83
2020/12/02 12:56:31;;;;;;;32.50;17.80;;;13.90;97.40;;;;;;3596789;40;20163;-87
2020/12/02 12:59:57;;;;;;;27.48;15.02;;;14.20;97.60;;;;;;3595689;39;20135;-84
2020/12/02 13:02:30;;;;;;;22.95;15.85;;;14.20;97.80;;;;;;3612731;39;20102;-84
2020/12/02 13:05:52;;;;;;;24.53;16.50;;;14.20;98.20;;;;;;3641498;32;20118;-82
2020/12/02 13:08:38;;;;;;;22.85;16.65;;;14.00;98.40;;;;;;3610278;32;20117;-84
2020/12/02 13:11:25;;;;;;;26.33;18.50;;;14.20;98.40;;;;;;3598794;40;20776;-82
2020/12/02 13:14:09;;;;;;;5.95;5.35;;;14.30;98.20;;;;;;3597631;40;20335;-85
2020/12/02 13:17:10;;;;;;;16.33;9.57;;;13.70;96.50;;;;;;3597158;40;20185;-85
2020/12/02 13:20:34;;;;;;;22.77;13.55;;;13.90;96.70;;;;;;3591894;40;20115;-84
2020/12/02 13:23:27;;;;;;;24.08;16.15;;;15.30;97.10;;;;;;3597424;32;20192;-84
2020/12/02 13:26:20;;;;;;;27.57;19.83;;;14.70;96.80;;;;;;3618313;32;20127;-84
2020/12/02 13:29:28;;;;;;;29.77;22.05;;;14.40;97.10;;;;;;3632227;32;20229;-83
2020/12/02 13:32:42;;;;;;;34.50;22.38;;;14.50;97.50;;;;;;3607415;39;20142;-84
2020/12/02 13:35:29;;;;;;;30.23;21.55;;;14.20;97.60;;;;;;3582901;40;20095;-84
2020/12/02 13:38:00;;;;;;;30.35;20.58;;;14.50;97.90;;;;;;3588043;40;20094;-85
2020/12/02 13:40:36;;;;;;;35.78;27.77;;;14.40;98.00;;;;;;3594258;32;20154;-83
2020/12/02 13:43:26;;;;;;;42.30;36.22;;;13.60;98.00;;;;;;3615529;32;20158;-84
2020/12/02 13:46:03;;;;;;;17.60;13.68;;;14.00;98.00;;;;;;3645927;32;20068;-85
2020/12/02 13:48:38;;;;;;;17.95;14.82;;;14.30;97.60;;;;;;3580242;32;20111;-83
2020/12/02 13:51:52;;;;;;;66.10;47.58;;;14.40;97.70;;;;;;3576704;40;20134;-82
2020/12/02 13:54:46;;;;;;;36.10;25.87;;;14.40;97.70;;;;;;3587176;40;20115;-84
2020/12/02 13:58:07;;;;;;;11.65;8.88;;;14.40;98.20;;;;;;3599863;32;20581;-81
2020/12/02 14:01:28;;;;;;;11.27;7.68;;;14.20;97.20;;;;;;3590824;40;20146;-83
2020/12/02 14:04:23;;;;;;;12.73;8.25;;;14.20;96.90;;;;;;3594104;40;20147;-83
2020/12/02 14:07:05;;;;;;;14.70;11.25;;;14.10;96.80;;;;;;3584429;40;20135;-82
2020/12/02 14:09:55;;;;;;;14.75;12.18;;;14.70;97.60;;;;;;3593815;32;20150;-83
2020/12/02 14:12:31;;;;;;;19.70;12.27;;;14.00;97.40;;;;;;3586751;32;20150;-83
2020/12/02 14:15:28;;;;;;;38.15;27.67;;;14.00;98.00;;;;;;3594603;40;20621;-83
2020/12/02 14:17:56;;;;;;;28.88;20.65;;;14.90;98.20;;;;;;3594022;40;20130;-84
2020/12/02 14:20:27;;;;;;;33.13;21.67;;;13.90;97.90;;;;;;3592229;40;20127;-83
2020/12/02 14:22:59;;;;;;;25.55;18.92;;;13.90;98.10;;;;;;3585185;40;20115;-82
2020/12/02 14:25:34;;;;;;;23.65;19.00;;;13.90;98.30;;;;;;3596463;32;20115;-85